Time;durP1;ratioP1;P1;durP2;ratioP2;P2;SDS_P1;SDS_P2;PMS_P1;PMS_P2;Temp;Humidity;BMP_temperature;BMP_pressure;BME280_temperature;BME280_humidity;BME280_pressure;Samples;Min_cycle;Max_cycle;Signal;HPM_P1;HPM_P2
2023/05/06 00:02:06;;;;;;;;;;;;;;;;;;5011247;28;19968;-63
2023/05/06 00:04:31;;;;;;;;;;;;;;;;;;5010211;28;19952;-62
2023/05/06 00:06:56;;;;;;;;;;;;;;;;;;5011062;28;20329;-63
2023/05/06 00:09:23;;;;;;;;;;;;;;;;;;5011309;28;19922;-63
2023/05/06 00:11:48;;;;;;;;;;;;;;;;;;5013410;28;19940;-64
2023/05/06 00:14:14;;;;;;;;;;;;;;;;;;4996655;28;20387;-65
2023/05/06 00:16:39;;;;;;;;;;;;;;;;;;5014341;28;19925;-63
2023/05/06 00:19:05;;;;;;;;;;;;;;;;;;4996498;28;19936;-63
2023/05/06 00:21:30;;;;;;;;;;;;;;;;;;5014168;28;20405;-63
2023/05/06 00:23:56;;;;;;;;;;;;;;;;;;5013862;28;19929;-64
2023/05/06 00:26:21;;;;;;;;;;;;;;;;;;5014090;28;19925;-63
2023/05/06 00:28:47;;;;;;;;;;;;;;;;;;4996145;28;19957;-63
2023/05/06 00:31:12;;;;;;;;;;;;;;;;;;5014245;28;19917;-63
2023/05/06 00:33:37;;;;;;;;;;;;;;;;;;4996163;28;20413;-63
2023/05/06 00:36:03;;;;;;;;;;;;;;;;;;5013730;28;19961;-63
2023/05/06 00:38:28;;;;;;;;;;;;;;;;;;5013957;28;19929;-62
2023/05/06 00:40:54;;;;;;;;;;;;;;;;;;4995892;28;19917;-64
2023/05/06 00:43:19;;;;;;;;;;;;;;;;;;4996281;28;20403;-63
2023/05/06 00:45:44;;;;;;;;;;;;;;;;;;4995901;28;19932;-63
2023/05/06 00:48:10;;;;;;;;;;;;;;;;;;5013607;28;19921;-63
2023/05/06 00:50:35;;;;;;;;;;;;;;;;;;5013509;28;19917;-63
2023/05/06 00:53:00;;;;;;;;;;;;;;;;;;4979626;28;20011;-63
2023/05/06 00:55:26;;;;;;;;;;;;;;;;;;4996111;28;20016;-64
2023/05/06 00:57:51;;;;;;;;;;;;;;;;;;4995943;28;20391;-63
2023/05/06 01:00:16;;;;;;;;;;;;;;;;;;4995701;28;19918;-63
2023/05/06 01:02:42;;;;;;;;;;;;;;;;;;5013144;28;19921;-62
2023/05/06 01:05:07;;;;;;;;;;;;;;;;;;4979168;28;19925;-62
2023/05/06 01:07:33;;;;;;;;;;;;;;;;;;5008716;28;19921;-63
2023/05/06 01:09:58;;;;;;;;;;;;;;;;;;5013252;28;19980;-64
2023/05/06 01:12:23;;;;;;;;;;;;;;;;;;5013741;28;20382;-64
2023/05/06 01:14:49;;;;;;;;;;;;;;;;;;5012884;28;20359;-63
2023/05/06 01:17:15;;;;;;;;;;;;;;;;;;5013509;28;19926;-62
2023/05/06 01:19:41;;;;;;;;;;;;;;;;;;5012490;28;19922;-65
2023/05/06 01:22:07;;;;;;;;;;;;;;;;;;4994716;28;20251;-64
2023/05/06 01:24:33;;;;;;;;;;;;;;;;;;5012591;28;19937;-63
2023/05/06 01:26:58;;;;;;;;;;;;;;;;;;5012815;28;19932;-64
2023/05/06 01:29:24;;;;;;;;;;;;;;;;;;4995335;28;19925;-63
2023/05/06 01:31:49;;;;;;;;;;;;;;;;;;4994939;28;19917;-63
2023/05/06 01:34:15;;;;;;;;;;;;;;;;;;4995245;28;20012;-64
2023/05/06 01:36:41;;;;;;;;;;;;;;;;;;5012627;28;19953;-63
2023/05/06 01:39:07;;;;;;;;;;;;;;;;;;4994459;28;20366;-63
2023/05/06 01:41:33;;;;;;;;;;;;;;;;;;4994626;28;19918;-61
2023/05/06 01:43:58;;;;;;;;;;;;;;;;;;4994866;28;19927;-64
2023/05/06 01:46:24;;;;;;;;;;;;;;;;;;5012813;28;19921;-64
2023/05/06 01:48:49;;;;;;;;;;;;;;;;;;5012450;28;19921;-63
2023/05/06 01:51:14;;;;;;;;;;;;;;;;;;4991433;28;20393;-63
2023/05/06 01:53:40;;;;;;;;;;;;;;;;;;5010280;28;20442;-62
2023/05/06 01:56:05;;;;;;;;;;;;;;;;;;5012961;28;20346;-64
2023/05/06 01:58:30;;;;;;;;;;;;;;;;;;4994612;28;19922;-64
2023/05/06 02:00:56;;;;;;;;;;;;;;;;;;5012512;28;19921;-62
2023/05/06 02:03:21;;;;;;;;;;;;;;;;;;5012438;28;20311;-64
2023/05/06 02:05:46;;;;;;;;;;;;;;;;;;4994004;28;20016;-63
2023/05/06 02:08:12;;;;;;;;;;;;;;;;;;4994825;28;20022;-63
2023/05/06 02:10:37;;;;;;;;;;;;;;;;;;4976114;28;19917;-63
2023/05/06 02:13:06;;;;;;;;;;;;;;;;;;4994748;28;19948;-64
2023/05/06 02:15:31;;;;;;;;;;;;;;;;;;4994113;28;20339;-63
2023/05/06 02:17:58;;;;;;;;;;;;;;;;;;4994361;28;19925;-63
2023/05/06 02:20:24;;;;;;;;;;;;;;;;;;4985886;28;19929;-63
2023/05/06 02:23:10;;;;;;;;;;;;;;;;;;4983872;28;19929;-64
2023/05/06 02:25:35;;;;;;;;;;;;;;;;;;5011718;28;20302;-62
2023/05/06 02:28:01;;;;;;;;;;;;;;;;;;5011768;28;19964;-64
2023/05/06 02:30:29;;;;;;;;;;;;;;;;;;5011647;28;19925;-62
2023/05/06 02:32:54;;;;;;;;;;;;;;;;;;4994063;28;19928;-64
2023/05/06 02:35:20;;;;;;;;;;;;;;;;;;5008579;28;20317;-64
2023/05/06 02:37:45;;;;;;;;;;;;;;;;;;4992885;28;19921;-64
2023/05/06 02:40:10;;;;;;;;;;;;;;;;;;4977703;28;20288;-62
2023/05/06 02:42:36;;;;;;;;;;;;;;;;;;4993677;28;19926;-62
2023/05/06 02:45:01;;;;;;;;;;;;;;;;;;4991132;28;19933;-64
2023/05/06 02:47:28;;;;;;;;;;;;;;;;;;4993136;28;19918;-64
2023/05/06 02:49:53;;;;;;;;;;;;;;;;;;5005514;28;19929;-64
2023/05/06 02:52:19;;;;;;;;;;;;;;;;;;5010632;28;19917;-63
2023/05/06 02:54:44;;;;;;;;;;;;;;;;;;5012079;28;20407;-63
2023/05/06 02:57:09;;;;;;;;;;;;;;;;;;4994369;28;20294;-62
2023/05/06 02:59:34;;;;;;;;;;;;;;;;;;4994577;28;19921;-63
2023/05/06 03:02:00;;;;;;;;;;;;;;;;;;5011993;28;20318;-63
2023/05/06 03:04:25;;;;;;;;;;;;;;;;;;5010707;28;19929;-66
2023/05/06 03:06:50;;;;;;;;;;;;;;;;;;4994580;28;19967;-62
2023/05/06 03:09:16;;;;;;;;;;;;;;;;;;4991125;28;19926;-65
2023/05/06 03:11:41;;;;;;;;;;;;;;;;;;5003936;28;19917;-64
2023/05/06 03:14:07;;;;;;;;;;;;;;;;;;5009648;28;19922;-64
2023/05/06 03:16:32;;;;;;;;;;;;;;;;;;4993391;28;19917;-64
2023/05/06 03:18:59;;;;;;;;;;;;;;;;;;4993199;28;19952;-65
2023/05/06 03:21:24;;;;;;;;;;;;;;;;;;4993347;28;19963;-65
2023/05/06 03:23:51;;;;;;;;;;;;;;;;;;4976644;28;20306;-63
2023/05/06 03:26:18;;;;;;;;;;;;;;;;;;4993062;28;20343;-64
2023/05/06 03:28:44;;;;;;;;;;;;;;;;;;4973893;28;19921;-64
2023/05/06 03:31:10;;;;;;;;;;;;;;;;;;5009480;28;19922;-63
2023/05/06 03:33:35;;;;;;;;;;;;;;;;;;4993607;28;20342;-64
2023/05/06 03:36:02;;;;;;;;;;;;;;;;;;4976577;28;19924;-63
2023/05/06 03:38:28;;;;;;;;;;;;;;;;;;4993633;28;19921;-66
2023/05/06 03:40:59;;;;;;;;;;;;;;;;;;5010592;28;19918;-62
2023/05/06 03:43:25;;;;;;;;;;;;;;;;;;4993416;28;19965;-64
2023/05/06 03:45:54;;;;;;;;;;;;;;;;;;5013500;28;19926;-64
2023/05/06 03:48:20;;;;;;;;;;;;;;;;;;4997267;28;19928;-66
2023/05/06 03:50:46;;;;;;;;;;;;;;;;;;4980786;28;19921;-63
2023/05/06 03:53:12;;;;;;;;;;;;;;;;;;5013593;28;20312;-64
2023/05/06 03:55:39;;;;;;;;;;;;;;;;;;5013192;28;20048;-64
2023/05/06 03:58:05;;;;;;;;;;;;;;;;;;4979786;28;20431;-65
2023/05/06 04:00:31;;;;;;;;;;;;;;;;;;4996922;28;19917;-63
2023/05/06 04:02:56;;;;;;;;;;;;;;;;;;5014626;28;19928;-64
2023/05/06 04:05:28;;;;;;;;;;;;;;;;;;4996353;28;19937;-64
2023/05/06 04:07:54;;;;;;;;;;;;;;;;;;4980518;28;19944;-64
2023/05/06 04:10:20;;;;;;;;;;;;;;;;;;4979648;28;20302;-64
2023/05/06 04:12:48;;;;;;;;;;;;;;;;;;4996773;28;19921;-64
2023/05/06 04:15:18;;;;;;;;;;;;;;;;;;4996646;28;20005;-65
2023/05/06 04:17:44;;;;;;;;;;;;;;;;;;4996714;28;19968;-64
2023/05/06 04:20:10;;;;;;;;;;;;;;;;;;4996252;28;19921;-63
2023/05/06 04:22:37;;;;;;;;;;;;;;;;;;5012892;28;19921;-64
2023/05/06 04:25:03;;;;;;;;;;;;;;;;;;4979857;28;19949;-63
2023/05/06 04:27:30;;;;;;;;;;;;;;;;;;4993143;28;20407;-64
2023/05/06 04:29:57;;;;;;;;;;;;;;;;;;4992568;28;19925;-65
2023/05/06 04:32:25;;;;;;;;;;;;;;;;;;4994675;28;20283;-64
2023/05/06 04:34:52;;;;;;;;;;;;;;;;;;4992820;28;20330;-65
2023/05/06 04:37:20;;;;;;;;;;;;;;;;;;4976850;28;19918;-63
2023/05/06 04:40:15;;;;;;;;;;;;;;;;;;4986873;28;20000;-64
2023/05/06 04:42:42;;;;;;;;;;;;;;;;;;4988733;28;19929;-64
2023/05/06 04:45:13;;;;;;;;;;;;;;;;;;4991788;28;19926;-65
2023/05/06 04:47:42;;;;;;;;;;;;;;;;;;4988541;28;19922;-65
2023/05/06 04:50:08;;;;;;;;;;;;;;;;;;4990079;28;19925;-66
2023/05/06 04:52:34;;;;;;;;;;;;;;;;;;4987784;28;20057;-64
2023/05/06 04:54:59;;;;;;;;;;;;;;;;;;4993699;28;19998;-64
2023/05/06 04:57:25;;;;;;;;;;;;;;;;;;4990578;28;19927;-67
2023/05/06 04:59:52;;;;;;;;;;;;;;;;;;4992973;28;20306;-65
2023/05/06 05:02:18;;;;;;;;;;;;;;;;;;4986728;28;19918;-65
2023/05/06 05:04:43;;;;;;;;;;;;;;;;;;4989932;28;19945;-71
2023/05/06 05:07:08;;;;;;;;;;;;;;;;;;4993633;28;19944;-70
2023/05/06 05:09:34;;;;;;;;;;;;;;;;;;4994524;28;19921;-72
2023/05/06 05:12:00;;;;;;;;;;;;;;;;;;4977242;28;19925;-68
2023/05/06 05:14:25;;;;;;;;;;;;;;;;;;5001934;28;19925;-67
2023/05/06 05:16:51;;;;;;;;;;;;;;;;;;4996150;28;19917;-66
2023/05/06 05:19:16;;;;;;;;;;;;;;;;;;4993393;28;19926;-66
2023/05/06 05:21:41;;;;;;;;;;;;;;;;;;4988418;28;19918;-67
2023/05/06 05:24:09;;;;;;;;;;;;;;;;;;4991440;28;19922;-66
2023/05/06 05:26:34;;;;;;;;;;;;;;;;;;4992011;28;19932;-65
2023/05/06 05:29:00;;;;;;;;;;;;;;;;;;4991619;28;19969;-68
2023/05/06 05:31:26;;;;;;;;;;;;;;;;;;4991028;28;19922;-66
2023/05/06 05:33:51;;;;;;;;;;;;;;;;;;4991755;28;19922;-66
2023/05/06 05:36:20;;;;;;;;;;;;;;;;;;4988522;28;19957;-65
2023/05/06 05:38:47;;;;;;;;;;;;;;;;;;4989983;28;19961;-66
2023/05/06 05:41:13;;;;;;;;;;;;;;;;;;4974818;28;19956;-67
2023/05/06 05:43:38;;;;;;;;;;;;;;;;;;4975480;28;19922;-66
2023/05/06 05:46:04;;;;;;;;;;;;;;;;;;4991475;28;19926;-64
2023/05/06 05:48:31;;;;;;;;;;;;;;;;;;5008047;28;19921;-68
2023/05/06 05:50:58;;;;;;;;;;;;;;;;;;5003194;28;19960;-71
2023/05/06 05:53:23;;;;;;;;;;;;;;;;;;4992522;28;19969;-69
2023/05/06 05:55:49;;;;;;;;;;;;;;;;;;5007645;28;19925;-67
2023/05/06 05:58:15;;;;;;;;;;;;;;;;;;4991896;28;20024;-70
2023/05/06 06:00:41;;;;;;;;;;;;;;;;;;4991508;28;19922;-70
2023/05/06 06:03:10;;;;;;;;;;;;;;;;;;4991820;28;19930;-69
2023/05/06 06:05:36;;;;;;;;;;;;;;;;;;4990968;28;20407;-69
2023/05/06 06:08:02;;;;;;;;;;;;;;;;;;4990522;28;19925;-69
2023/05/06 06:10:28;;;;;;;;;;;;;;;;;;4992733;28;19941;-69
2023/05/06 06:12:53;;;;;;;;;;;;;;;;;;4974837;28;19966;-69
2023/05/06 06:15:21;;;;;;;;;;;;;;;;;;4974748;28;20387;-69
2023/05/06 06:17:48;;;;;;;;;;;;;;;;;;4991129;28;19968;-68
2023/05/06 06:20:14;;;;;;;;;;;;;;;;;;5007185;28;20027;-68
2023/05/06 06:22:39;;;;;;;;;;;;;;;;;;4992437;28;19928;-70
2023/05/06 06:25:05;;;;;;;;;;;;;;;;;;5007107;28;20371;-70
2023/05/06 06:27:31;;;;;;;;;;;;;;;;;;5007248;28;19930;-70
2023/05/06 06:29:56;;;;;;;;;;;;;;;;;;4990810;28;19932;-70
2023/05/06 06:32:21;;;;;;;;;;;;;;;;;;4992028;28;19917;-69
2023/05/06 06:34:47;;;;;;;;;;;;;;;;;;4974649;28;19923;-69
2023/05/06 06:37:12;;;;;;;;;;;;;;;;;;4990933;28;20283;-69
2023/05/06 06:39:40;;;;;;;;;;;;;;;;;;4990555;28;19965;-69
2023/05/06 06:42:06;;;;;;;;;;;;;;;;;;4992459;28;19987;-70
2023/05/06 06:44:39;;;;;;;;;;;;;;;;;;4989770;28;21369;-70
2023/05/06 06:47:04;;;;;;;;;;;;;;;;;;4992249;28;19949;-69
2023/05/06 06:49:30;;;;;;;;;;;;;;;;;;4991029;28;20017;-70
2023/05/06 06:51:56;;;;;;;;;;;;;;;;;;4984891;28;19922;-69
2023/05/06 06:54:21;;;;;;;;;;;;;;;;;;4991933;28;19932;-70
2023/05/06 06:56:47;;;;;;;;;;;;;;;;;;4991853;28;19918;-70
2023/05/06 06:59:12;;;;;;;;;;;;;;;;;;4991610;28;19933;-70
2023/05/06 07:01:38;;;;;;;;;;;;;;;;;;4990615;28;19933;-69
2023/05/06 07:04:03;;;;;;;;;;;;;;;;;;4973863;28;20006;-70
2023/05/06 07:06:28;;;;;;;;;;;;;;;;;;4990683;28;19948;-69
2023/05/06 07:08:54;;;;;;;;;;;;;;;;;;4989752;28;19922;-68
2023/05/06 07:11:19;;;;;;;;;;;;;;;;;;4991943;28;19918;-67
2023/05/06 07:13:44;;;;;;;;;;;;;;;;;;4991251;28;20307;-71
2023/05/06 07:16:10;;;;;;;;;;;;;;;;;;4991515;28;19921;-71
2023/05/06 07:18:35;;;;;;;;;;;;;;;;;;4991300;28;19965;-70
2023/05/06 07:21:01;;;;;;;;;;;;;;;;;;4989543;28;19924;-71
2023/05/06 07:23:26;;;;;;;;;;;;;;;;;;4986367;28;19926;-71
2023/05/06 07:25:52;;;;;;;;;;;;;;;;;;4981588;28;20332;-69
2023/05/06 07:28:18;;;;;;;;;;;;;;;;;;5010403;28;19930;-74
2023/05/06 07:30:44;;;;;;;;;;;;;;;;;;4973731;28;19976;-71
2023/05/06 07:33:09;;;;;;;;;;;;;;;;;;5010705;28;19921;-70
2023/05/06 07:35:35;;;;;;;;;;;;;;;;;;4973790;28;20375;-70
2023/05/06 07:38:00;;;;;;;;;;;;;;;;;;5004495;28;19928;-66
2023/05/06 07:40:26;;;;;;;;;;;;;;;;;;5004747;28;20008;-73
2023/05/06 07:42:51;;;;;;;;;;;;;;;;;;4996416;28;20292;-73
2023/05/06 07:45:18;;;;;;;;;;;;;;;;;;4965254;28;19960;-71
2023/05/06 07:47:43;;;;;;;;;;;;;;;;;;5002177;28;20012;-71
2023/05/06 07:50:09;;;;;;;;;;;;;;;;;;5020807;28;20036;-72
2023/05/06 07:52:34;;;;;;;;;;;;;;;;;;5009087;28;19929;-73
2023/05/06 07:55:00;;;;;;;;;;;;;;;;;;5009352;28;20294;-72
2023/05/06 07:57:25;;;;;;;;;;;;;;;;;;4993904;28;19972;-74
2023/05/06 07:59:50;;;;;;;;;;;;;;;;;;4973673;28;19985;-73
2023/05/06 08:02:16;;;;;;;;;;;;;;;;;;5003833;28;19922;-72
2023/05/06 08:04:41;;;;;;;;;;;;;;;;;;5009682;28;20183;-72
2023/05/06 08:07:07;;;;;;;;;;;;;;;;;;5007388;28;19923;-73
2023/05/06 08:09:32;;;;;;;;;;;;;;;;;;4992279;28;19937;-73
2023/05/06 08:11:57;;;;;;;;;;;;;;;;;;5000317;28;19917;-70
2023/05/06 08:14:24;;;;;;;;;;;;;;;;;;4991334;28;19921;-70
2023/05/06 08:16:50;;;;;;;;;;;;;;;;;;5009513;28;19917;-72
2023/05/06 08:19:15;;;;;;;;;;;;;;;;;;5007455;28;19924;-73
2023/05/06 08:21:40;;;;;;;;;;;;;;;;;;5009199;28;19917;-74
2023/05/06 08:24:06;;;;;;;;;;;;;;;;;;4997642;28;20299;-73
2023/05/06 08:26:31;;;;;;;;;;;;;;;;;;4985149;28;19972;-72
2023/05/06 08:28:58;;;;;;;;;;;;;;;;;;5002923;28;19967;-70
2023/05/06 08:31:23;;;;;;;;;;;;;;;;;;5009869;28;20011;-70
2023/05/06 08:33:48;;;;;;;;;;;;;;;;;;4993668;28;20012;-73
2023/05/06 08:36:14;;;;;;;;;;;;;;;;;;4995398;28;19949;-75
2023/05/06 08:38:39;;;;;;;;;;;;;;;;;;5013162;28;19921;-73
2023/05/06 08:41:04;;;;;;;;;;;;;;;;;;5012504;28;19929;-73
2023/05/06 08:43:30;;;;;;;;;;;;;;;;;;4995687;28;19928;-73
2023/05/06 08:45:56;;;;;;;;;;;;;;;;;;4993975;28;19925;-72
2023/05/06 08:48:21;;;;;;;;;;;;;;;;;;5013494;28;20378;-72
2023/05/06 08:50:46;;;;;;;;;;;;;;;;;;5012321;28;19921;-71
2023/05/06 08:53:12;;;;;;;;;;;;;;;;;;5013025;28;19933;-72
2023/05/06 08:55:37;;;;;;;;;;;;;;;;;;4991365;28;20371;-72
2023/05/06 08:58:02;;;;;;;;;;;;;;;;;;5011070;28;20019;-72
2023/05/06 09:00:28;;;;;;;;;;;;;;;;;;5012733;28;20462;-72
2023/05/06 09:02:53;;;;;;;;;;;;;;;;;;5012576;28;19922;-76
2023/05/06 09:05:18;;;;;;;;;;;;;;;;;;5012514;28;19926;-73
2023/05/06 09:07:44;;;;;;;;;;;;;;;;;;5012660;28;19922;-75
2023/05/06 09:10:09;;;;;;;;;;;;;;;;;;5011688;28;19970;-72
2023/05/06 09:12:34;;;;;;;;;;;;;;;;;;4999406;28;19926;-74
2023/05/06 09:15:00;;;;;;;;;;;;;;;;;;5011091;28;20302;-71
2023/05/06 09:17:27;;;;;;;;;;;;;;;;;;5012270;28;19918;-67
2023/05/06 09:19:52;;;;;;;;;;;;;;;;;;5011740;28;20051;-72
2023/05/06 09:22:18;;;;;;;;;;;;;;;;;;4978018;28;20012;-65
2023/05/06 09:24:43;;;;;;;;;;;;;;;;;;5000083;28;19929;-65
2023/05/06 09:27:08;;;;;;;;;;;;;;;;;;5013342;28;20410;-66
2023/05/06 09:29:34;;;;;;;;;;;;;;;;;;5003320;28;20303;-65
2023/05/06 09:31:59;;;;;;;;;;;;;;;;;;4987819;28;19921;-65
2023/05/06 09:34:25;;;;;;;;;;;;;;;;;;4969531;28;19922;-67
2023/05/06 09:36:50;;;;;;;;;;;;;;;;;;5012236;28;19917;-66
2023/05/06 09:39:16;;;;;;;;;;;;;;;;;;5011623;28;20350;-65
2023/05/06 09:41:41;;;;;;;;;;;;;;;;;;5011872;28;20295;-66
2023/05/06 09:44:06;;;;;;;;;;;;;;;;;;5011208;28;19929;-65
2023/05/06 09:46:32;;;;;;;;;;;;;;;;;;5011613;28;19925;-65
2023/05/06 09:48:57;;;;;;;;;;;;;;;;;;5012231;28;19927;-66
2023/05/06 09:51:23;;;;;;;;;;;;;;;;;;5010097;28;19968;-66
2023/05/06 09:53:48;;;;;;;;;;;;;;;;;;4994279;28;19968;-65
2023/05/06 09:56:14;;;;;;;;;;;;;;;;;;4993481;28;19963;-69
2023/05/06 09:58:39;;;;;;;;;;;;;;;;;;4994315;28;19922;-68
2023/05/06 10:01:05;;;;;;;;;;;;;;;;;;5011450;28;19918;-65
2023/05/06 10:03:30;;;;;;;;;;;;;;;;;;4994326;28;19933;-66
2023/05/06 10:05:56;;;;;;;;;;;;;;;;;;5010989;28;19925;-66
2023/05/06 10:08:21;;;;;;;;;;;;;;;;;;5012255;28;20303;-66
2023/05/06 10:10:47;;;;;;;;;;;;;;;;;;5010421;28;20379;-65
2023/05/06 10:13:12;;;;;;;;;;;;;;;;;;5011569;28;19922;-69
2023/05/06 10:15:37;;;;;;;;;;;;;;;;;;5011362;28;19923;-66
2023/05/06 10:18:03;;;;;;;;;;;;;;;;;;5010818;28;19967;-65
2023/05/06 10:20:28;;;;;;;;;;;;;;;;;;4990947;28;19975;-73
2023/05/06 10:22:53;;;;;;;;;;;;;;;;;;4994319;28;19921;-68
2023/05/06 10:25:19;;;;;;;;;;;;;;;;;;5005560;28;19925;-70
2023/05/06 10:27:46;;;;;;;;;;;;;;;;;;4974959;28;19926;-66
2023/05/06 10:30:11;;;;;;;;;;;;;;;;;;4985522;28;19975;-65
2023/05/06 10:32:37;;;;;;;;;;;;;;;;;;5011398;28;19917;-68
2023/05/06 10:35:03;;;;;;;;;;;;;;;;;;5010454;28;19940;-66
2023/05/06 10:37:28;;;;;;;;;;;;;;;;;;4993955;28;20401;-71
2023/05/06 10:39:55;;;;;;;;;;;;;;;;;;4974079;28;19921;-67
2023/05/06 10:42:21;;;;;;;;;;;;;;;;;;4993515;28;19922;-67
2023/05/06 10:44:47;;;;;;;;;;;;;;;;;;5011094;28;20117;-65
2023/05/06 10:47:12;;;;;;;;;;;;;;;;;;4992077;28;20330;-65
2023/05/06 10:49:37;;;;;;;;;;;;;;;;;;5011172;28;19928;-66
2023/05/06 10:52:03;;;;;;;;;;;;;;;;;;5010872;28;19921;-65
2023/05/06 10:54:28;;;;;;;;;;;;;;;;;;4973838;28;19925;-67
2023/05/06 10:56:54;;;;;;;;;;;;;;;;;;5010087;28;20509;-66
2023/05/06 10:59:20;;;;;;;;;;;;;;;;;;4992983;28;19923;-68
2023/05/06 11:01:45;;;;;;;;;;;;;;;;;;5011434;28;19928;-68
2023/05/06 11:04:10;;;;;;;;;;;;;;;;;;4993442;28;19921;-68
2023/05/06 11:06:36;;;;;;;;;;;;;;;;;;5010639;28;20309;-67
2023/05/06 11:09:02;;;;;;;;;;;;;;;;;;5011279;28;19964;-67
2023/05/06 11:11:28;;;;;;;;;;;;;;;;;;5011427;28;19922;-66
2023/05/06 11:13:53;;;;;;;;;;;;;;;;;;5010426;28;19918;-67
2023/05/06 11:16:19;;;;;;;;;;;;;;;;;;5004118;28;19937;-67
2023/05/06 11:18:44;;;;;;;;;;;;;;;;;;5010939;28;19917;-68
2023/05/06 11:21:10;;;;;;;;;;;;;;;;;;4992943;28;19926;-67
2023/05/06 11:23:35;;;;;;;;;;;;;;;;;;5009980;28;19917;-68
2023/05/06 11:26:00;;;;;;;;;;;;;;;;;;5010061;28;19936;-70
2023/05/06 11:28:27;;;;;;;;;;;;;;;;;;5010723;28;20280;-67
2023/05/06 11:30:52;;;;;;;;;;;;;;;;;;5010472;28;19929;-67
2023/05/06 11:33:20;;;;;;;;;;;;;;;;;;5010978;28;19979;-68
2023/05/06 11:35:45;;;;;;;;;;;;;;;;;;5010564;28;19968;-68
2023/05/06 11:38:11;;;;;;;;;;;;;;;;;;5010302;28;19918;-66
2023/05/06 11:40:36;;;;;;;;;;;;;;;;;;4976203;28;20014;-67
2023/05/06 11:43:01;;;;;;;;;;;;;;;;;;4993156;28;19944;-69
2023/05/06 11:45:27;;;;;;;;;;;;;;;;;;5008177;28;20363;-67
2023/05/06 11:47:52;;;;;;;;;;;;;;;;;;5005135;28;20426;-68
2023/05/06 11:50:17;;;;;;;;;;;;;;;;;;5009679;28;19921;-69
2023/05/06 11:52:43;;;;;;;;;;;;;;;;;;5010463;28;20326;-66
2023/05/06 11:55:11;;;;;;;;;;;;;;;;;;5010082;28;19929;-70
2023/05/06 11:57:36;;;;;;;;;;;;;;;;;;5005119;28;20493;-73
2023/05/06 12:00:03;;;;;;;;;;;;;;;;;;4989585;28;20025;-72
2023/05/06 12:02:37;;;;;;;;;;;;;;;;;;4989421;28;20024;-67
2023/05/06 12:05:02;;;;;;;;;;;;;;;;;;4992145;28;20025;-68
2023/05/06 12:07:28;;;;;;;;;;;;;;;;;;5013861;28;19918;-68
2023/05/06 12:09:53;;;;;;;;;;;;;;;;;;4995552;28;19928;-69
2023/05/06 12:12:20;;;;;;;;;;;;;;;;;;5012511;28;19932;-69
2023/05/06 12:14:45;;;;;;;;;;;;;;;;;;5014022;28;19922;-69
2023/05/06 12:17:11;;;;;;;;;;;;;;;;;;4994640;28;20015;-77
2023/05/06 12:19:36;;;;;;;;;;;;;;;;;;5014150;28;19925;-74
2023/05/06 12:22:01;;;;;;;;;;;;;;;;;;5013382;28;20348;-74
2023/05/06 12:24:30;;;;;;;;;;;;;;;;;;5013738;28;19929;-72
2023/05/06 12:26:55;;;;;;;;;;;;;;;;;;5013087;28;19929;-68
2023/05/06 12:29:21;;;;;;;;;;;;;;;;;;5013196;28;19917;-66
2023/05/06 12:31:46;;;;;;;;;;;;;;;;;;5013592;28;19926;-66
2023/05/06 12:34:11;;;;;;;;;;;;;;;;;;5012456;28;19921;-66
2023/05/06 12:36:37;;;;;;;;;;;;;;;;;;4995442;28;20016;-67
2023/05/06 12:39:02;;;;;;;;;;;;;;;;;;4976865;28;19917;-68
2023/05/06 12:41:27;;;;;;;;;;;;;;;;;;5007296;28;19922;-66
2023/05/06 12:43:53;;;;;;;;;;;;;;;;;;4995001;28;19918;-67
2023/05/06 12:46:18;;;;;;;;;;;;;;;;;;5007429;28;19926;-67
2023/05/06 12:48:43;;;;;;;;;;;;;;;;;;5014392;28;19975;-71
2023/05/06 12:51:09;;;;;;;;;;;;;;;;;;5015408;28;19921;-68
2023/05/06 12:53:34;;;;;;;;;;;;;;;;;;4977799;28;19919;-67
2023/05/06 12:55:59;;;;;;;;;;;;;;;;;;4978509;28;19928;-67
2023/05/06 12:58:25;;;;;;;;;;;;;;;;;;5005480;28;19960;-68
2023/05/06 13:00:50;;;;;;;;;;;;;;;;;;5004648;28;20005;-71
2023/05/06 13:03:15;;;;;;;;;;;;;;;;;;5005119;28;19921;-70
2023/05/06 13:05:41;;;;;;;;;;;;;;;;;;5012963;28;19936;-69
2023/05/06 13:08:06;;;;;;;;;;;;;;;;;;5011598;28;19948;-71
2023/05/06 13:10:31;;;;;;;;;;;;;;;;;;4976718;28;19968;-70
2023/05/06 13:12:57;;;;;;;;;;;;;;;;;;5012800;28;20409;-68
2023/05/06 13:15:22;;;;;;;;;;;;;;;;;;5012598;28;19975;-70
2023/05/06 13:17:47;;;;;;;;;;;;;;;;;;5008974;28;19921;-72
2023/05/06 13:20:13;;;;;;;;;;;;;;;;;;5000420;28;19976;-71
2023/05/06 13:22:38;;;;;;;;;;;;;;;;;;5011555;28;20012;-71
2023/05/06 13:25:04;;;;;;;;;;;;;;;;;;4994805;28;19990;-73
2023/05/06 13:27:30;;;;;;;;;;;;;;;;;;4991527;28;19930;-68
2023/05/06 13:29:55;;;;;;;;;;;;;;;;;;4992432;28;19922;-69
2023/05/06 13:32:20;;;;;;;;;;;;;;;;;;4992164;28;20009;-69
2023/05/06 13:34:45;;;;;;;;;;;;;;;;;;4992802;28;19922;-71
2023/05/06 13:37:11;;;;;;;;;;;;;;;;;;4991029;28;19972;-66
2023/05/06 13:39:36;;;;;;;;;;;;;;;;;;4989906;28;19960;-67
2023/05/06 13:42:02;;;;;;;;;;;;;;;;;;4992392;28;19953;-69
2023/05/06 13:44:28;;;;;;;;;;;;;;;;;;4992882;28;20359;-69
2023/05/06 13:46:53;;;;;;;;;;;;;;;;;;4991361;28;19953;-71
2023/05/06 13:49:19;;;;;;;;;;;;;;;;;;4993579;28;20016;-70
2023/05/06 13:51:44;;;;;;;;;;;;;;;;;;4992975;28;19928;-68
2023/05/06 13:54:09;;;;;;;;;;;;;;;;;;4986142;28;20338;-73
2023/05/06 13:56:35;;;;;;;;;;;;;;;;;;4984206;28;20296;-69
2023/05/06 13:59:00;;;;;;;;;;;;;;;;;;4987935;28;19965;-67
2023/05/06 14:01:25;;;;;;;;;;;;;;;;;;4987754;28;19922;-71
2023/05/06 14:03:51;;;;;;;;;;;;;;;;;;4990412;28;19918;-72
2023/05/06 14:06:16;;;;;;;;;;;;;;;;;;4992063;28;19937;-70
2023/05/06 14:08:42;;;;;;;;;;;;;;;;;;4992066;28;19968;-70
2023/05/06 14:11:09;;;;;;;;;;;;;;;;;;4992010;28;19957;-70
2023/05/06 14:13:34;;;;;;;;;;;;;;;;;;4992370;28;19964;-71
2023/05/06 14:15:59;;;;;;;;;;;;;;;;;;4989720;28;20378;-69
2023/05/06 14:18:24;;;;;;;;;;;;;;;;;;4992649;28;20435;-70
2023/05/06 14:20:50;;;;;;;;;;;;;;;;;;4991316;28;19922;-68
2023/05/06 14:23:15;;;;;;;;;;;;;;;;;;4991700;28;19922;-70
2023/05/06 14:25:40;;;;;;;;;;;;;;;;;;4991774;28;20318;-73
2023/05/06 14:28:06;;;;;;;;;;;;;;;;;;5004856;28;19926;-71
2023/05/06 14:30:33;;;;;;;;;;;;;;;;;;5011316;28;20403;-71
2023/05/06 14:32:58;;;;;;;;;;;;;;;;;;5011200;28;19924;-71
2023/05/06 14:35:24;;;;;;;;;;;;;;;;;;4994128;28;19925;-71
2023/05/06 14:37:49;;;;;;;;;;;;;;;;;;4991063;28;20309;-67
2023/05/06 14:40:14;;;;;;;;;;;;;;;;;;5010900;28;20302;-73
2023/05/06 14:42:40;;;;;;;;;;;;;;;;;;4990260;28;19968;-69
2023/05/06 14:45:05;;;;;;;;;;;;;;;;;;5010568;28;19940;-69
2023/05/06 14:47:31;;;;;;;;;;;;;;;;;;5010875;28;19917;-68
2023/05/06 14:49:56;;;;;;;;;;;;;;;;;;5011029;28;19922;-68
2023/05/06 14:52:22;;;;;;;;;;;;;;;;;;5010319;28;19917;-68
2023/05/06 14:54:47;;;;;;;;;;;;;;;;;;4993576;28;19975;-72
2023/05/06 14:57:12;;;;;;;;;;;;;;;;;;5010184;28;20341;-69
2023/05/06 14:59:37;;;;;;;;;;;;;;;;;;5011321;28;19928;-68
2023/05/06 15:02:03;;;;;;;;;;;;;;;;;;4991466;28;19918;-69
2023/05/06 15:04:28;;;;;;;;;;;;;;;;;;5011188;28;19941;-70
2023/05/06 15:06:55;;;;;;;;;;;;;;;;;;5010005;28;19921;-68
2023/05/06 15:09:20;;;;;;;;;;;;;;;;;;5011058;28;19917;-68
2023/05/06 15:11:46;;;;;;;;;;;;;;;;;;4990449;28;19928;-70
2023/05/06 15:14:11;;;;;;;;;;;;;;;;;;5011145;28;20359;-69
2023/05/06 15:16:37;;;;;;;;;;;;;;;;;;5010100;28;19925;-71
2023/05/06 15:19:03;;;;;;;;;;;;;;;;;;5009620;28;20031;-68
2023/05/06 15:21:28;;;;;;;;;;;;;;;;;;5004250;28;19926;-64
2023/05/06 15:23:55;;;;;;;;;;;;;;;;;;5008782;28;20453;-65
2023/05/06 15:26:20;;;;;;;;;;;;;;;;;;4992931;28;19952;-68
2023/05/06 15:28:45;;;;;;;;;;;;;;;;;;4986643;28;20399;-70
2023/05/06 15:31:11;;;;;;;;;;;;;;;;;;4990686;28;19992;-66
2023/05/06 15:33:37;;;;;;;;;;;;;;;;;;4990404;28;19964;-76
2023/05/06 15:36:02;;;;;;;;;;;;;;;;;;4972751;28;19979;-68
2023/05/06 15:38:28;;;;;;;;;;;;;;;;;;4986591;28;20009;-67
2023/05/06 15:40:53;;;;;;;;;;;;;;;;;;4990138;28;19969;-64
2023/05/06 15:43:18;;;;;;;;;;;;;;;;;;4994359;28;19917;-65
2023/05/06 15:45:44;;;;;;;;;;;;;;;;;;4994358;28;19929;-68
2023/05/06 15:48:09;;;;;;;;;;;;;;;;;;4994629;28;19924;-66
2023/05/06 15:50:34;;;;;;;;;;;;;;;;;;4989708;28;19922;-72
2023/05/06 15:53:00;;;;;;;;;;;;;;;;;;4997894;28;20387;-66
2023/05/06 15:55:26;;;;;;;;;;;;;;;;;;4991115;28;20224;-65
2023/05/06 15:57:53;;;;;;;;;;;;;;;;;;4992363;28;19918;-67
2023/05/06 16:00:18;;;;;;;;;;;;;;;;;;4993306;28;19921;-63
2023/05/06 16:02:44;;;;;;;;;;;;;;;;;;4985899;28;19940;-63
2023/05/06 16:05:09;;;;;;;;;;;;;;;;;;4993544;28;20069;-65
2023/05/06 16:07:35;;;;;;;;;;;;;;;;;;4992520;28;19961;-65
2023/05/06 16:10:00;;;;;;;;;;;;;;;;;;4994205;28;19922;-64
2023/05/06 16:12:25;;;;;;;;;;;;;;;;;;4994250;28;20004;-66
2023/05/06 16:14:51;;;;;;;;;;;;;;;;;;4993956;28;20391;-68
2023/05/06 16:17:16;;;;;;;;;;;;;;;;;;4988925;28;19990;-65
2023/05/06 16:19:41;;;;;;;;;;;;;;;;;;4993617;28;20354;-63
2023/05/06 16:22:07;;;;;;;;;;;;;;;;;;4993431;28;19922;-66
2023/05/06 16:24:32;;;;;;;;;;;;;;;;;;4993575;28;20338;-64
2023/05/06 16:26:57;;;;;;;;;;;;;;;;;;4994083;28;20388;-66
2023/05/06 16:29:23;;;;;;;;;;;;;;;;;;4992393;28;19929;-70
2023/05/06 16:31:49;;;;;;;;;;;;;;;;;;4993682;28;19929;-67
2023/05/06 16:34:14;;;;;;;;;;;;;;;;;;4994091;28;19918;-72
2023/05/06 16:36:39;;;;;;;;;;;;;;;;;;4992322;28;19933;-68